sensor_id;sensor_type;location;lat;lon;timestamp;pressure;altitude;pressure_sealevel;temperature;humidity
85055;BME280;75391;48.300;16.352;2024-02-23T00:01:54;97861.72;;;11.47;100.00
85055;BME280;75391;48.300;16.352;2024-02-23T00:04:20;97855.63;;;12.74;100.00
85055;BME280;75391;48.300;16.352;2024-02-23T00:06:46;97845.34;;;11.54;100.00
85055;BME280;75391;48.300;16.352;2024-02-23T00:09:12;97865.34;;;11.35;100.00
85055;BME280;75391;48.300;16.352;2024-02-23T00:11:41;97858.13;;;11.37;100.00
85055;BME280;75391;48.300;16.352;2024-02-23T00:14:07;97867.53;;;11.30;100.00
85055;BME280;75391;48.300;16.352;2024-02-23T00:16:38;97846.00;;;11.78;100.00
85055;BME280;75391;48.300;16.352;2024-02-23T00:19:04;97851.13;;;11.59;100.00
85055;BME280;75391;48.300;16.352;2024-02-23T00:21:30;97840.59;;;12.53;100.00
85055;BME280;75391;48.300;16.352;2024-02-23T00:23:55;97846.97;;;12.09;100.00
85055;BME280;75391;48.300;16.352;2024-02-23T00:26:21;97824.31;;;12.16;100.00
85055;BME280;75391;48.300;16.352;2024-02-23T00:28:47;97830.19;;;12.20;100.00
85055;BME280;75391;48.300;16.352;2024-02-23T00:31:13;97834.88;;;11.95;100.00
85055;BME280;75391;48.300;16.352;2024-02-23T00:33:38;97835.25;;;11.91;100.00
85055;BME280;75391;48.300;16.352;2024-02-23T00:36:04;97833.72;;;12.09;100.00
85055;BME280;75391;48.300;16.352;2024-02-23T00:38:30;97830.13;;;12.31;100.00
85055;BME280;75391;48.300;16.352;2024-02-23T00:40:56;97828.94;;;12.66;100.00
85055;BME280;75391;48.300;16.352;2024-02-23T00:43:22;97822.63;;;12.36;100.00
85055;BME280;75391;48.300;16.352;2024-02-23T00:45:47;97825.97;;;12.59;100.00
85055;BME280;75391;48.300;16.352;2024-02-23T00:48:13;97831.81;;;12.11;100.00
85055;BME280;75391;48.300;16.352;2024-02-23T00:50:39;97836.06;;;12.65;100.00
85055;BME280;75391;48.300;16.352;2024-02-23T00:53:05;97834.53;;;12.42;100.00
85055;BME280;75391;48.300;16.352;2024-02-23T00:55:30;97859.34;;;11.33;100.00
85055;BME280;75391;48.300;16.352;2024-02-23T00:57:56;97859.38;;;12.09;100.00
85055;BME280;75391;48.300;16.352;2024-02-23T01:00:22;97875.25;;;11.22;100.00
85055;BME280;75391;48.300;16.352;2024-02-23T01:02:48;97875.47;;;11.30;100.00
85055;BME280;75391;48.300;16.352;2024-02-23T01:05:13;97867.88;;;11.37;100.00
85055;BME280;75391;48.300;16.352;2024-02-23T01:07:39;97866.06;;;11.37;100.00
85055;BME280;75391;48.300;16.352;2024-02-23T01:10:05;97858.75;;;11.30;100.00
85055;BME280;75391;48.300;16.352;2024-02-23T01:12:31;97854.41;;;11.40;100.00
85055;BME280;75391;48.300;16.352;2024-02-23T01:14:57;97842.50;;;11.89;100.00
85055;BME280;75391;48.300;16.352;2024-02-23T01:17:23;97840.69;;;12.73;100.00
85055;BME280;75391;48.300;16.352;2024-02-23T01:19:48;97841.66;;;12.72;100.00
85055;BME280;75391;48.300;16.352;2024-02-23T01:22:14;97837.69;;;12.87;100.00
85055;BME280;75391;48.300;16.352;2024-02-23T01:24:40;97832.41;;;12.87;100.00
85055;BME280;75391;48.300;16.352;2024-02-23T01:27:06;97843.28;;;12.00;100.00
85055;BME280;75391;48.300;16.352;2024-02-23T01:29:31;97837.59;;;12.68;100.00
85055;BME280;75391;48.300;16.352;2024-02-23T01:31:57;97841.94;;;12.48;100.00
85055;BME280;75391;48.300;16.352;2024-02-23T01:34:23;97851.53;;;12.91;100.00
85055;BME280;75391;48.300;16.352;2024-02-23T01:36:49;97854.16;;;12.60;100.00
85055;BME280;75391;48.300;16.352;2024-02-23T01:39:15;97852.63;;;12.37;100.00
85055;BME280;75391;48.300;16.352;2024-02-23T01:41:40;97855.91;;;11.65;100.00
85055;BME280;75391;48.300;16.352;2024-02-23T01:44:06;97856.06;;;11.52;100.00
85055;BME280;75391;48.300;16.352;2024-02-23T01:46:32;97849.31;;;12.44;100.00
85055;BME280;75391;48.300;16.352;2024-02-23T01:48:58;97837.03;;;12.43;100.00
85055;BME280;75391;48.300;16.352;2024-02-23T01:51:24;97841.66;;;12.72;100.00
85055;BME280;75391;48.300;16.352;2024-02-23T01:53:51;97841.13;;;12.78;100.00
85055;BME280;75391;48.300;16.352;2024-02-23T01:56:17;97832.72;;;12.73;100.00
85055;BME280;75391;48.300;16.352;2024-02-23T01:58:43;97829.38;;;12.71;100.00
85055;BME280;75391;48.300;16.352;2024-02-23T02:01:09;97821.72;;;12.26;100.00
85055;BME280;75391;48.300;16.352;2024-02-23T02:03:40;97821.34;;;12.82;100.00
85055;BME280;75391;48.300;16.352;2024-02-23T02:06:06;97813.41;;;12.61;100.00
85055;BME280;75391;48.300;16.352;2024-02-23T02:08:35;97822.81;;;12.23;100.00
85055;BME280;75391;48.300;16.352;2024-02-23T02:11:00;97814.28;;;12.41;100.00
85055;BME280;75391;48.300;16.352;2024-02-23T02:13:28;97814.75;;;12.25;100.00
85055;BME280;75391;48.300;16.352;2024-02-23T02:15:54;97830.56;;;11.94;100.00
85055;BME280;75391;48.300;16.352;2024-02-23T02:18:20;97829.47;;;12.39;100.00
85055;BME280;75391;48.300;16.352;2024-02-23T02:20:55;97827.09;;;12.36;100.00
85055;BME280;75391;48.300;16.352;2024-02-23T02:23:22;97843.44;;;11.99;100.00
85055;BME280;75391;48.300;16.352;2024-02-23T02:25:54;97841.94;;;12.27;100.00
85055;BME280;75391;48.300;16.352;2024-02-23T02:28:21;97844.91;;;12.54;100.00
85055;BME280;75391;48.300;16.352;2024-02-23T02:30:48;97837.81;;;11.92;100.00
85055;BME280;75391;48.300;16.352;2024-02-23T02:33:14;97842.81;;;11.63;100.00
85055;BME280;75391;48.300;16.352;2024-02-23T02:35:39;97863.50;;;11.58;100.00
85055;BME280;75391;48.300;16.352;2024-02-23T02:38:05;97859.22;;;12.63;100.00
85055;BME280;75391;48.300;16.352;2024-02-23T02:40:31;97868.00;;;12.43;100.00
85055;BME280;75391;48.300;16.352;2024-02-23T02:42:57;97877.44;;;11.83;100.00
85055;BME280;75391;48.300;16.352;2024-02-23T02:45:23;97879.50;;;12.32;100.00
85055;BME280;75391;48.300;16.352;2024-02-23T02:47:49;97886.34;;;11.82;100.00
85055;BME280;75391;48.300;16.352;2024-02-23T02:50:16;97892.16;;;11.96;100.00
85055;BME280;75391;48.300;16.352;2024-02-23T02:52:42;97895.06;;;12.05;100.00
85055;BME280;75391;48.300;16.352;2024-02-23T02:55:08;97899.16;;;12.50;100.00
85055;BME280;75391;48.300;16.352;2024-02-23T02:57:34;97897.34;;;12.51;100.00
85055;BME280;75391;48.300;16.352;2024-02-23T03:00:00;97897.66;;;12.16;100.00
85055;BME280;75391;48.300;16.352;2024-02-23T03:02:26;97903.94;;;12.36;100.00
85055;BME280;75391;48.300;16.352;2024-02-23T03:04:51;97899.66;;;12.44;100.00
85055;BME280;75391;48.300;16.352;2024-02-23T03:07:17;97905.38;;;12.40;100.00
85055;BME280;75391;48.300;16.352;2024-02-23T03:09:43;97905.75;;;12.03;100.00
85055;BME280;75391;48.300;16.352;2024-02-23T03:12:10;97890.13;;;12.00;100.00
85055;BME280;75391;48.300;16.352;2024-02-23T03:14:36;97898.31;;;12.71;100.00
85055;BME280;75391;48.300;16.352;2024-02-23T03:17:02;97902.44;;;12.84;100.00
85055;BME280;75391;48.300;16.352;2024-02-23T03:19:28;97909.84;;;11.41;100.00
85055;BME280;75391;48.300;16.352;2024-02-23T03:21:54;97914.66;;;11.47;100.00
85055;BME280;75391;48.300;16.352;2024-02-23T03:24:19;97915.13;;;11.41;100.00
85055;BME280;75391;48.300;16.352;2024-02-23T03:26:45;97919.25;;;11.23;100.00
85055;BME280;75391;48.300;16.352;2024-02-23T03:29:11;97915.56;;;12.23;100.00
85055;BME280;75391;48.300;16.352;2024-02-23T03:31:37;97931.28;;;12.36;100.00
85055;BME280;75391;48.300;16.352;2024-02-23T03:34:03;97960.94;;;11.98;100.00
85055;BME280;75391;48.300;16.352;2024-02-23T03:36:29;97998.81;;;9.90;100.00
85055;BME280;75391;48.300;16.352;2024-02-23T03:38:54;98003.53;;;10.22;100.00
85055;BME280;75391;48.300;16.352;2024-02-23T03:41:20;98012.38;;;10.93;100.00
85055;BME280;75391;48.300;16.352;2024-02-23T03:43:46;98026.38;;;10.47;100.00
85055;BME280;75391;48.300;16.352;2024-02-23T03:46:12;98032.97;;;10.77;100.00
85055;BME280;75391;48.300;16.352;2024-02-23T03:48:37;98040.97;;;11.57;100.00
85055;BME280;75391;48.300;16.352;2024-02-23T03:51:04;98047.00;;;11.81;100.00
85055;BME280;75391;48.300;16.352;2024-02-23T03:53:30;98043.22;;;11.28;100.00
85055;BME280;75391;48.300;16.352;2024-02-23T03:55:57;98041.94;;;10.98;100.00
85055;BME280;75391;48.300;16.352;2024-02-23T03:58:23;98057.91;;;11.65;100.00
85055;BME280;75391;48.300;16.352;2024-02-23T04:00:48;98064.06;;;10.62;100.00
85055;BME280;75391;48.300;16.352;2024-02-23T04:03:14;98067.41;;;11.79;100.00
85055;BME280;75391;48.300;16.352;2024-02-23T04:05:40;98079.91;;;10.62;100.00
85055;BME280;75391;48.300;16.352;2024-02-23T04:08:06;98127.09;;;11.14;100.00
85055;BME280;75391;48.300;16.352;2024-02-23T04:10:33;98123.53;;;10.43;100.00
85055;BME280;75391;48.300;16.352;2024-02-23T04:13:00;98118.13;;;10.69;100.00
85055;BME280;75391;48.300;16.352;2024-02-23T04:15:26;98115.56;;;11.15;100.00
85055;BME280;75391;48.300;16.352;2024-02-23T04:17:51;98110.41;;;10.42;100.00
85055;BME280;75391;48.300;16.352;2024-02-23T04:20:17;98116.19;;;10.95;100.00
85055;BME280;75391;48.300;16.352;2024-02-23T04:22:44;98116.25;;;10.34;100.00
85055;BME280;75391;48.300;16.352;2024-02-23T04:25:10;98115.28;;;10.35;100.00
85055;BME280;75391;48.300;16.352;2024-02-23T04:27:35;98119.25;;;9.53;100.00
85055;BME280;75391;48.300;16.352;2024-02-23T04:30:02;98113.31;;;10.01;100.00
85055;BME280;75391;48.300;16.352;2024-02-23T04:32:28;98101.75;;;11.23;100.00
85055;BME280;75391;48.300;16.352;2024-02-23T04:34:54;98111.41;;;10.15;100.00
85055;BME280;75391;48.300;16.352;2024-02-23T04:37:20;98104.69;;;11.42;100.00
85055;BME280;75391;48.300;16.352;2024-02-23T04:39:46;98113.72;;;10.33;100.00
85055;BME280;75391;48.300;16.352;2024-02-23T04:42:12;98105.50;;;10.96;100.00
85055;BME280;75391;48.300;16.352;2024-02-23T04:44:40;98107.03;;;10.88;100.00
85055;BME280;75391;48.300;16.352;2024-02-23T04:47:06;98107.66;;;11.84;100.00
85055;BME280;75391;48.300;16.352;2024-02-23T04:49:32;98113.44;;;11.32;100.00
85055;BME280;75391;48.300;16.352;2024-02-23T04:51:57;98115.25;;;10.72;100.00
85055;BME280;75391;48.300;16.352;2024-02-23T04:54:23;98117.53;;;10.29;100.00
85055;BME280;75391;48.300;16.352;2024-02-23T04:56:49;98122.84;;;10.03;100.00
85055;BME280;75391;48.300;16.352;2024-02-23T04:59:15;98131.06;;;10.24;100.00
85055;BME280;75391;48.300;16.352;2024-02-23T05:01:40;98142.69;;;10.09;100.00
85055;BME280;75391;48.300;16.352;2024-02-23T05:04:06;98151.53;;;10.21;100.00
85055;BME280;75391;48.300;16.352;2024-02-23T05:06:32;98148.06;;;10.33;100.00
85055;BME280;75391;48.300;16.352;2024-02-23T05:08:58;98146.28;;;9.95;100.00
85055;BME280;75391;48.300;16.352;2024-02-23T05:11:24;98158.19;;;10.13;100.00
85055;BME280;75391;48.300;16.352;2024-02-23T05:13:49;98165.94;;;10.04;100.00
85055;BME280;75391;48.300;16.352;2024-02-23T05:16:15;98169.91;;;10.22;100.00
85055;BME280;75391;48.300;16.352;2024-02-23T05:18:41;98162.47;;;10.53;100.00
85055;BME280;75391;48.300;16.352;2024-02-23T05:21:07;98176.50;;;9.78;100.00
85055;BME280;75391;48.300;16.352;2024-02-23T05:23:33;98173.50;;;10.70;100.00
85055;BME280;75391;48.300;16.352;2024-02-23T05:25:59;98167.47;;;10.45;100.00
85055;BME280;75391;48.300;16.352;2024-02-23T05:28:25;98169.69;;;10.51;100.00
85055;BME280;75391;48.300;16.352;2024-02-23T05:30:51;98164.84;;;10.19;100.00
85055;BME280;75391;48.300;16.352;2024-02-23T05:33:17;98179.84;;;10.31;100.00
85055;BME280;75391;48.300;16.352;2024-02-23T05:35:43;98171.91;;;10.31;100.00
85055;BME280;75391;48.300;16.352;2024-02-23T05:38:08;98171.59;;;10.36;100.00
85055;BME280;75391;48.300;16.352;2024-02-23T05:40:34;98173.72;;;10.43;100.00
85055;BME280;75391;48.300;16.352;2024-02-23T05:43:00;98179.22;;;10.15;100.00
85055;BME280;75391;48.300;16.352;2024-02-23T05:45:26;98184.41;;;10.29;100.00
85055;BME280;75391;48.300;16.352;2024-02-23T05:47:51;98184.69;;;10.50;100.00
85055;BME280;75391;48.300;16.352;2024-02-23T05:50:17;98189.34;;;10.47;100.00
85055;BME280;75391;48.300;16.352;2024-02-23T05:52:43;98172.41;;;11.91;100.00
85055;BME280;75391;48.300;16.352;2024-02-23T05:55:09;98189.00;;;10.51;100.00
85055;BME280;75391;48.300;16.352;2024-02-23T05:57:34;98188.84;;;10.29;100.00
85055;BME280;75391;48.300;16.352;2024-02-23T06:00:00;98189.38;;;10.70;100.00
85055;BME280;75391;48.300;16.352;2024-02-23T06:02:26;98193.63;;;10.60;100.00
85055;BME280;75391;48.300;16.352;2024-02-23T06:04:52;98198.63;;;10.52;100.00
85055;BME280;75391;48.300;16.352;2024-02-23T06:07:18;98202.84;;;10.55;100.00
85055;BME280;75391;48.300;16.352;2024-02-23T06:09:44;98212.47;;;10.17;100.00
85055;BME280;75391;48.300;16.352;2024-02-23T06:12:10;98225.50;;;10.33;100.00
85055;BME280;75391;48.300;16.352;2024-02-23T06:14:36;98220.00;;;10.73;100.00
85055;BME280;75391;48.300;16.352;2024-02-23T06:17:02;98226.47;;;10.82;100.00
85055;BME280;75391;48.300;16.352;2024-02-23T06:19:28;98221.59;;;10.39;100.00
85055;BME280;75391;48.300;16.352;2024-02-23T06:21:54;98236.34;;;10.54;100.00
85055;BME280;75391;48.300;16.352;2024-02-23T06:24:20;98232.41;;;10.60;100.00
85055;BME280;75391;48.300;16.352;2024-02-23T06:26:46;98229.38;;;10.90;100.00
85055;BME280;75391;48.300;16.352;2024-02-23T06:29:13;98225.00;;;10.65;100.00
85055;BME280;75391;48.300;16.352;2024-02-23T06:31:40;98235.25;;;11.30;100.00
85055;BME280;75391;48.300;16.352;2024-02-23T06:34:06;98239.28;;;10.75;100.00
85055;BME280;75391;48.300;16.352;2024-02-23T06:36:31;98240.22;;;10.74;100.00
85055;BME280;75391;48.300;16.352;2024-02-23T06:38:57;98234.19;;;11.33;100.00
85055;BME280;75391;48.300;16.352;2024-02-23T06:41:23;98239.94;;;11.50;100.00
85055;BME280;75391;48.300;16.352;2024-02-23T06:43:49;98246.75;;;11.77;100.00
85055;BME280;75391;48.300;16.352;2024-02-23T06:46:14;98240.59;;;11.76;100.00
85055;BME280;75391;48.300;16.352;2024-02-23T06:48:40;98246.47;;;12.15;100.00
85055;BME280;75391;48.300;16.352;2024-02-23T06:51:06;98241.16;;;11.58;100.00
85055;BME280;75391;48.300;16.352;2024-02-23T06:53:32;98236.69;;;11.82;100.00
85055;BME280;75391;48.300;16.352;2024-02-23T06:55:58;98236.72;;;11.93;100.00
85055;BME280;75391;48.300;16.352;2024-02-23T06:58:24;98245.16;;;11.39;100.00
85055;BME280;75391;48.300;16.352;2024-02-23T07:00:49;98247.25;;;11.47;100.00
85055;BME280;75391;48.300;16.352;2024-02-23T07:03:15;98248.34;;;11.32;100.00
85055;BME280;75391;48.300;16.352;2024-02-23T07:05:41;98245.09;;;11.52;100.00
85055;BME280;75391;48.300;16.352;2024-02-23T07:08:07;98254.25;;;11.83;100.00
85055;BME280;75391;48.300;16.352;2024-02-23T07:10:33;98255.00;;;11.96;100.00
85055;BME280;75391;48.300;16.352;2024-02-23T07:12:59;98261.97;;;11.97;100.00
85055;BME280;75391;48.300;16.352;2024-02-23T07:15:25;98266.78;;;11.33;100.00
85055;BME280;75391;48.300;16.352;2024-02-23T07:17:50;98281.56;;;11.60;100.00
85055;BME280;75391;48.300;16.352;2024-02-23T07:20:16;98288.00;;;11.68;100.00
85055;BME280;75391;48.300;16.352;2024-02-23T07:22:46;98277.03;;;11.73;100.00
85055;BME280;75391;48.300;16.352;2024-02-23T07:25:18;98290.16;;;11.63;100.00
85055;BME280;75391;48.300;16.352;2024-02-23T07:27:44;98291.59;;;11.91;100.00
85055;BME280;75391;48.300;16.352;2024-02-23T07:30:11;98287.94;;;12.39;100.00
85055;BME280;75391;48.300;16.352;2024-02-23T07:32:37;98303.34;;;12.11;100.00
85055;BME280;75391;48.300;16.352;2024-02-23T07:35:03;98304.47;;;11.24;100.00
85055;BME280;75391;48.300;16.352;2024-02-23T07:37:30;98326.69;;;11.34;100.00
85055;BME280;75391;48.300;16.352;2024-02-23T07:39:56;98332.41;;;11.28;100.00
85055;BME280;75391;48.300;16.352;2024-02-23T07:42:22;98341.53;;;11.24;100.00
85055;BME280;75391;48.300;16.352;2024-02-23T07:44:47;98337.59;;;11.54;100.00
85055;BME280;75391;48.300;16.352;2024-02-23T07:47:13;98345.59;;;11.04;100.00
85055;BME280;75391;48.300;16.352;2024-02-23T07:49:39;98351.00;;;11.39;100.00
85055;BME280;75391;48.300;16.352;2024-02-23T07:52:05;98368.56;;;10.91;100.00
85055;BME280;75391;48.300;16.352;2024-02-23T07:54:31;98365.91;;;10.91;100.00
85055;BME280;75391;48.300;16.352;2024-02-23T07:56:57;98357.25;;;10.76;100.00
85055;BME280;75391;48.300;16.352;2024-02-23T07:59:23;98346.00;;;11.11;100.00
85055;BME280;75391;48.300;16.352;2024-02-23T08:01:48;98353.00;;;11.96;100.00
85055;BME280;75391;48.300;16.352;2024-02-23T08:04:14;98376.50;;;11.40;100.00
85055;BME280;75391;48.300;16.352;2024-02-23T08:06:41;98384.84;;;11.10;100.00
85055;BME280;75391;48.300;16.352;2024-02-23T08:09:07;98384.25;;;11.67;100.00
85055;BME280;75391;48.300;16.352;2024-02-23T08:11:32;98377.19;;;11.79;100.00
85055;BME280;75391;48.300;16.352;2024-02-23T08:13:58;98381.06;;;11.38;100.00
85055;BME280;75391;48.300;16.352;2024-02-23T08:16:24;98387.47;;;11.23;100.00
85055;BME280;75391;48.300;16.352;2024-02-23T08:18:50;98396.44;;;11.20;100.00
85055;BME280;75391;48.300;16.352;2024-02-23T08:21:15;98401.53;;;11.60;100.00
85055;BME280;75391;48.300;16.352;2024-02-23T08:23:41;98413.19;;;11.21;100.00
85055;BME280;75391;48.300;16.352;2024-02-23T08:26:07;98411.97;;;11.38;100.00
85055;BME280;75391;48.300;16.352;2024-02-23T08:28:33;98409.84;;;11.43;100.00
85055;BME280;75391;48.300;16.352;2024-02-23T08:30:59;98414.69;;;10.74;100.00
85055;BME280;75391;48.300;16.352;2024-02-23T08:33:24;98421.03;;;11.10;100.00
85055;BME280;75391;48.300;16.352;2024-02-23T08:35:50;98415.06;;;11.19;100.00
85055;BME280;75391;48.300;16.352;2024-02-23T08:38:16;98418.47;;;11.08;100.00
85055;BME280;75391;48.300;16.352;2024-02-23T08:40:42;98419.34;;;11.09;100.00
85055;BME280;75391;48.300;16.352;2024-02-23T08:43:08;98438.56;;;10.60;100.00
85055;BME280;75391;48.300;16.352;2024-02-23T08:45:33;98438.78;;;11.70;100.00
85055;BME280;75391;48.300;16.352;2024-02-23T08:47:59;98455.75;;;10.40;100.00
85055;BME280;75391;48.300;16.352;2024-02-23T08:50:25;98463.25;;;10.33;100.00
85055;BME280;75391;48.300;16.352;2024-02-23T08:52:51;98452.53;;;10.62;100.00
85055;BME280;75391;48.300;16.352;2024-02-23T08:55:16;98447.69;;;10.81;100.00
85055;BME280;75391;48.300;16.352;2024-02-23T08:57:42;98446.16;;;10.52;100.00
85055;BME280;75391;48.300;16.352;2024-02-23T09:00:08;98445.34;;;10.77;100.00
85055;BME280;75391;48.300;16.352;2024-02-23T09:02:34;98463.63;;;10.67;100.00
85055;BME280;75391;48.300;16.352;2024-02-23T09:05:01;98464.50;;;10.93;100.00
85055;BME280;75391;48.300;16.352;2024-02-23T09:07:27;98461.09;;;11.29;100.00
85055;BME280;75391;48.300;16.352;2024-02-23T09:09:52;98463.22;;;11.24;100.00
85055;BME280;75391;48.300;16.352;2024-02-23T09:12:18;98457.28;;;11.33;100.00
85055;BME280;75391;48.300;16.352;2024-02-23T09:14:44;98456.50;;;11.44;100.00
85055;BME280;75391;48.300;16.352;2024-02-23T09:17:10;98457.88;;;12.93;100.00
85055;BME280;75391;48.300;16.352;2024-02-23T09:19:36;98454.34;;;12.81;100.00
85055;BME280;75391;48.300;16.352;2024-02-23T09:22:02;98459.31;;;12.51;100.00
85055;BME280;75391;48.300;16.352;2024-02-23T09:24:28;98461.78;;;12.65;100.00
85055;BME280;75391;48.300;16.352;2024-02-23T09:26:54;98470.06;;;12.61;100.00
85055;BME280;75391;48.300;16.352;2024-02-23T09:29:20;98469.59;;;13.13;100.00
85055;BME280;75391;48.300;16.352;2024-02-23T09:31:45;98467.63;;;12.81;100.00
85055;BME280;75391;48.300;16.352;2024-02-23T09:34:11;98476.88;;;12.76;100.00
85055;BME280;75391;48.300;16.352;2024-02-23T09:36:37;98487.41;;;12.89;100.00
85055;BME280;75391;48.300;16.352;2024-02-23T09:39:03;98487.06;;;12.93;100.00
85055;BME280;75391;48.300;16.352;2024-02-23T09:41:29;98484.00;;;12.87;100.00
85055;BME280;75391;48.300;16.352;2024-02-23T09:43:58;98480.13;;;13.59;100.00
85055;BME280;75391;48.300;16.352;2024-02-23T09:46:25;98485.84;;;13.08;100.00
85055;BME280;75391;48.300;16.352;2024-02-23T09:48:51;98497.88;;;12.90;100.00
85055;BME280;75391;48.300;16.352;2024-02-23T09:51:18;98501.00;;;12.84;100.00
85055;BME280;75391;48.300;16.352;2024-02-23T09:53:43;98493.69;;;12.99;100.00
85055;BME280;75391;48.300;16.352;2024-02-23T09:56:10;98504.97;;;12.78;100.00
85055;BME280;75391;48.300;16.352;2024-02-23T09:58:37;98498.75;;;13.02;100.00
85055;BME280;75391;48.300;16.352;2024-02-23T10:01:03;98490.09;;;13.00;100.00
85055;BME280;75391;48.300;16.352;2024-02-23T10:03:30;98497.88;;;12.90;100.00
85055;BME280;75391;48.300;16.352;2024-02-23T10:05:59;98498.47;;;12.82;100.00
85055;BME280;75391;48.300;16.352;2024-02-23T10:08:25;98498.66;;;13.15;100.00
85055;BME280;75391;48.300;16.352;2024-02-23T10:10:51;98499.47;;;13.04;100.00
85055;BME280;75391;48.300;16.352;2024-02-23T10:13:20;98481.88;;;13.03;100.00
85055;BME280;75391;48.300;16.352;2024-02-23T10:15:50;98474.94;;;13.24;100.00
85055;BME280;75391;48.300;16.352;2024-02-23T10:18:16;98465.16;;;13.25;100.00
85055;BME280;75391;48.300;16.352;2024-02-23T10:20:42;98463.72;;;13.21;100.00
85055;BME280;75391;48.300;16.352;2024-02-23T10:23:08;98459.84;;;13.25;100.00
85055;BME280;75391;48.300;16.352;2024-02-23T10:25:36;98459.81;;;13.02;100.00
85055;BME280;75391;48.300;16.352;2024-02-23T10:28:05;98465.38;;;13.22;100.00
85055;BME280;75391;48.300;16.352;2024-02-23T10:30:32;98467.09;;;13.23;100.00
85055;BME280;75391;48.300;16.352;2024-02-23T10:32:58;98455.13;;;13.51;100.00
85055;BME280;75391;48.300;16.352;2024-02-23T10:35:25;98456.94;;;13.39;100.00
85055;BME280;75391;48.300;16.352;2024-02-23T10:37:52;98456.09;;;13.61;100.00
85055;BME280;75391;48.300;16.352;2024-02-23T10:40:19;98447.03;;;13.63;100.00
85055;BME280;75391;48.300;16.352;2024-02-23T10:42:47;98439.59;;;13.46;100.00
85055;BME280;75391;48.300;16.352;2024-02-23T10:45:15;98439.81;;;13.66;100.00
85055;BME280;75391;48.300;16.352;2024-02-23T10:47:42;98441.03;;;13.50;100.00
85055;BME280;75391;48.300;16.352;2024-02-23T10:50:09;98432.72;;;13.98;100.00
85055;BME280;75391;48.300;16.352;2024-02-23T10:52:35;98436.91;;;13.69;100.00
85055;BME280;75391;48.300;16.352;2024-02-23T10:55:01;98434.72;;;13.74;100.00
85055;BME280;75391;48.300;16.352;2024-02-23T10:57:27;98445.31;;;13.96;100.00
85055;BME280;75391;48.300;16.352;2024-02-23T10:59:53;98436.22;;;13.99;100.00
85055;BME280;75391;48.300;16.352;2024-02-23T11:02:20;98437.31;;;14.07;100.00
85055;BME280;75391;48.300;16.352;2024-02-23T11:04:49;98441.44;;;14.00;100.00
85055;BME280;75391;48.300;16.352;2024-02-23T11:07:19;98442.16;;;13.91;100.00
85055;BME280;75391;48.300;16.352;2024-02-23T11:09:58;98440.72;;;13.87;100.00
85055;BME280;75391;48.300;16.352;2024-02-23T11:12:26;98440.09;;;14.06;100.00
85055;BME280;75391;48.300;16.352;2024-02-23T11:14:57;98437.81;;;13.90;100.00
85055;BME280;75391;48.300;16.352;2024-02-23T11:17:26;98429.78;;;14.12;100.00
85055;BME280;75391;48.300;16.352;2024-02-23T11:19:54;98426.66;;;14.07;100.00
85055;BME280;75391;48.300;16.352;2024-02-23T11:22:25;98424.47;;;14.12;100.00
85055;BME280;75391;48.300;16.352;2024-02-23T11:24:51;98430.47;;;14.26;100.00
85055;BME280;75391;48.300;16.352;2024-02-23T11:27:16;98423.78;;;14.31;100.00
85055;BME280;75391;48.300;16.352;2024-02-23T11:29:42;98423.19;;;14.28;100.00
85055;BME280;75391;48.300;16.352;2024-02-23T11:32:17;98426.00;;;13.94;100.00
85055;BME280;75391;48.300;16.352;2024-02-23T11:34:55;98428.94;;;13.57;100.00
85055;BME280;75391;48.300;16.352;2024-02-23T11:37:21;98432.34;;;13.26;100.00
85055;BME280;75391;48.300;16.352;2024-02-23T11:39:48;98432.34;;;13.37;100.00
85055;BME280;75391;48.300;16.352;2024-02-23T11:42:14;98424.38;;;13.37;100.00
85055;BME280;75391;48.300;16.352;2024-02-23T11:44:40;98409.06;;;13.29;100.00
85055;BME280;75391;48.300;16.352;2024-02-23T11:47:07;98404.00;;;13.26;100.00
85055;BME280;75391;48.300;16.352;2024-02-23T11:49:33;98403.84;;;13.50;100.00
85055;BME280;75391;48.300;16.352;2024-02-23T11:51:59;98402.44;;;13.46;100.00
85055;BME280;75391;48.300;16.352;2024-02-23T11:54:25;98401.31;;;13.49;100.00
85055;BME280;75391;48.300;16.352;2024-02-23T11:56:51;98388.88;;;13.49;100.00
85055;BME280;75391;48.300;16.352;2024-02-23T11:59:16;98386.44;;;13.57;100.00
85055;BME280;75391;48.300;16.352;2024-02-23T12:01:43;98387.78;;;13.52;100.00
85055;BME280;75391;48.300;16.352;2024-02-23T12:04:09;98386.38;;;13.48;100.00
85055;BME280;75391;48.300;16.352;2024-02-23T12:06:34;98394.34;;;13.48;100.00
85055;BME280;75391;48.300;16.352;2024-02-23T12:09:01;98381.72;;;13.72;100.00
85055;BME280;75391;48.300;16.352;2024-02-23T12:11:27;98380.59;;;13.31;100.00
85055;BME280;75391;48.300;16.352;2024-02-23T12:13:53;98369.13;;;13.42;100.00
85055;BME280;75391;48.300;16.352;2024-02-23T12:16:20;98372.75;;;13.41;100.00
85055;BME280;75391;48.300;16.352;2024-02-23T12:18:53;98376.13;;;13.43;100.00
85055;BME280;75391;48.300;16.352;2024-02-23T12:21:18;98370.91;;;13.19;100.00
85055;BME280;75391;48.300;16.352;2024-02-23T12:23:45;98374.78;;;13.38;100.00
85055;BME280;75391;48.300;16.352;2024-02-23T12:26:14;98361.53;;;13.26;100.00
85055;BME280;75391;48.300;16.352;2024-02-23T12:28:40;98367.31;;;12.75;100.00
85055;BME280;75391;48.300;16.352;2024-02-23T12:31:06;98365.25;;;13.13;100.00
85055;BME280;75391;48.300;16.352;2024-02-23T12:33:34;98372.03;;;13.05;100.00
85055;BME280;75391;48.300;16.352;2024-02-23T12:36:01;98367.66;;;12.82;100.00